createdAt,value
2019-02-06T00:00:45.078Z,21.57
2019-02-06T00:03:16.498Z,22.83
2019-02-06T00:05:46.257Z,21.63
2019-02-06T00:08:16.077Z,21.07
2019-02-06T00:10:45.912Z,21.80
2019-02-06T00:13:16.250Z,17.10
2019-02-06T00:15:46.124Z,17.50
2019-02-06T00:18:16.096Z,17.50
2019-02-06T00:20:45.894Z,18.60
2019-02-06T00:23:17.753Z,17.77
2019-02-06T00:25:47.531Z,18.63
2019-02-06T00:28:17.360Z,16.67
2019-02-06T00:30:48.226Z,23.03
2019-02-06T00:33:18.025Z,19.90
2019-02-06T00:35:48.752Z,22.17
2019-02-06T00:38:18.557Z,22.93
2019-02-06T00:40:48.249Z,20.40
2019-02-06T00:43:18.067Z,20.20
2019-02-06T00:45:48.936Z,21.07
2019-02-06T00:48:18.766Z,20.60
2019-02-06T00:50:48.552Z,18.23
2019-02-06T00:53:18.352Z,20.53
2019-02-06T00:55:48.612Z,20.60
2019-02-06T00:58:18.432Z,20.40
2019-02-06T01:00:48.237Z,20.33
2019-02-06T01:03:18.845Z,19.97
2019-02-06T01:06:01.059Z,19.20
2019-02-06T01:08:30.851Z,19.27
2019-02-06T01:11:01.022Z,17.87
2019-02-06T01:13:31.652Z,17.77
2019-02-06T01:16:01.394Z,17.93
2019-02-06T01:18:31.209Z,18.23
2019-02-06T01:21:01.054Z,18.67
2019-02-06T01:23:31.298Z,17.13
2019-02-06T01:26:01.561Z,17.00
2019-02-06T01:28:31.474Z,18.77
2019-02-06T01:31:13.272Z,18.70
2019-02-06T01:33:43.074Z,18.30
2019-02-06T01:36:12.863Z,18.50
2019-02-06T01:38:43.613Z,19.60
2019-02-06T01:41:13.403Z,18.67
2019-02-06T01:43:47.001Z,19.33
2019-02-06T01:46:16.795Z,19.57
2019-02-06T01:48:46.596Z,18.90
2019-02-06T01:51:27.434Z,18.50
2019-02-06T01:54:00.957Z,17.50
2019-02-06T01:56:30.736Z,17.90
2019-02-06T01:59:00.570Z,19.10
2019-02-06T02:01:30.738Z,17.73
2019-02-06T02:04:00.534Z,18.53
2019-02-06T02:06:30.440Z,18.23
2019-02-06T02:09:08.895Z,16.60
2019-02-06T02:11:38.685Z,17.80
2019-02-06T02:14:08.506Z,17.57
2019-02-06T02:16:47.588Z,17.33
2019-02-06T02:19:20.745Z,17.03
2019-02-06T02:21:58.142Z,16.40
2019-02-06T02:24:38.824Z,16.00
2019-02-06T02:27:22.675Z,16.90
2019-02-06T02:30:00.814Z,15.83
2019-02-06T02:32:30.618Z,16.17
2019-02-06T02:35:00.588Z,16.27
2019-02-06T02:37:30.414Z,17.13
2019-02-06T02:40:00.477Z,16.57
2019-02-06T02:48:34.107Z,15.03
2019-02-06T02:51:10.299Z,16.10
2019-02-06T02:53:51.896Z,15.43
2019-02-06T02:56:36.878Z,15.57
2019-02-06T02:59:13.212Z,15.17
2019-02-06T03:04:58.919Z,14.83
2019-02-06T03:07:36.829Z,14.83
2019-02-06T03:16:20.682Z,15.07
2019-02-06T03:22:08.129Z,14.40
2019-02-06T03:30:53.873Z,14.07
2019-02-06T03:33:34.515Z,13.73
2019-02-06T03:36:40.514Z,14.33
2019-02-06T03:42:28.123Z,14.50
2019-02-06T03:48:05.362Z,14.30
2019-02-06T03:50:58.089Z,14.40
2019-02-06T03:56:48.525Z,13.07
2019-02-06T03:59:34.304Z,12.93
2019-02-06T04:02:19.257Z,13.40
2019-02-06T04:05:04.561Z,13.50
2019-02-06T04:13:43.214Z,13.18
2019-02-06T04:16:16.046Z,13.15
2019-02-06T04:18:45.944Z,12.43
2019-02-06T04:21:18.618Z,13.62
2019-02-06T04:23:54.640Z,13.68
2019-02-06T04:26:25.039Z,13.48
2019-02-06T04:28:57.525Z,13.95
2019-02-06T04:31:28.495Z,13.62
2019-02-06T04:33:58.588Z,12.47
2019-02-06T04:36:31.979Z,12.07
2019-02-06T04:39:05.595Z,11.43
2019-02-06T04:41:37.472Z,12.63
2019-02-06T04:44:08.621Z,12.53
2019-02-06T04:46:44.460Z,12.80
2019-02-06T04:49:16.826Z,12.70
2019-02-06T04:51:47.029Z,11.87
2019-02-06T04:54:19.561Z,12.65
2019-02-06T04:56:50.375Z,12.53
2019-02-06T04:59:21.811Z,12.83
2019-02-06T05:01:51.694Z,13.20
2019-02-06T05:04:21.543Z,12.00
2019-02-06T05:06:52.815Z,11.80
2019-02-06T05:09:24.551Z,12.23
2019-02-06T05:11:55.984Z,11.57
2019-02-06T05:14:27.127Z,12.93
2019-02-06T05:16:58.589Z,14.23
2019-02-06T05:19:28.454Z,13.08
2019-02-06T05:22:00.350Z,13.93
2019-02-06T05:24:30.649Z,14.70
2019-02-06T05:27:03.265Z,13.55
2019-02-06T05:29:33.432Z,12.65
2019-02-06T05:32:06.129Z,13.38
2019-02-06T05:34:37.090Z,11.38
2019-02-06T05:37:10.007Z,12.20
2019-02-06T05:39:42.404Z,12.13
2019-02-06T05:42:14.852Z,13.10
2019-02-06T05:44:45.993Z,13.35
2019-02-06T05:47:15.817Z,12.70
2019-02-06T05:49:45.474Z,12.37
2019-02-06T05:52:17.159Z,12.15
2019-02-06T05:54:48.930Z,11.90
2019-02-06T05:57:18.750Z,12.33
2019-02-06T05:59:51.227Z,13.33
2019-02-06T06:02:26.043Z,12.87
2019-02-06T06:04:56.102Z,12.40
2019-02-06T06:07:25.937Z,12.00
2019-02-06T06:09:55.940Z,12.35
2019-02-06T06:12:25.791Z,13.60
2019-02-06T06:14:57.265Z,12.35
2019-02-06T06:17:27.810Z,24.65
2019-02-06T06:19:57.627Z,24.97
2019-02-06T06:22:27.653Z,20.03
2019-02-06T06:24:57.455Z,15.93
2019-02-06T06:27:27.252Z,14.30
2019-02-06T06:29:57.094Z,12.20
2019-02-06T06:32:27.317Z,12.10
2019-02-06T06:34:57.102Z,11.67
2019-02-06T06:37:26.907Z,11.70
2019-02-06T06:39:56.738Z,12.77
2019-02-06T06:42:30.906Z,13.03
2019-02-06T06:45:01.148Z,13.00
2019-02-06T06:47:30.990Z,13.23
2019-02-06T06:50:00.800Z,12.00
2019-02-06T06:52:30.612Z,11.70
2019-02-06T06:55:00.416Z,11.50
2019-02-06T06:57:30.324Z,11.73
2019-02-06T07:00:00.502Z,11.97
2019-02-06T07:02:32.311Z,11.60
2019-02-06T07:05:02.222Z,11.43
2019-02-06T07:07:32.021Z,12.20
2019-02-06T07:10:01.812Z,16.67
2019-02-06T07:12:31.625Z,12.53
2019-02-06T07:15:01.668Z,13.10
2019-02-06T07:17:31.450Z,15.57
2019-02-06T07:20:01.298Z,13.20
2019-02-06T07:22:31.092Z,13.53
2019-02-06T07:25:00.945Z,15.20
2019-02-06T07:27:30.615Z,15.73
2019-02-06T07:30:00.283Z,14.77
2019-02-06T07:32:30.434Z,13.80
2019-02-06T07:35:00.328Z,15.07
2019-02-06T07:37:30.075Z,14.80
2019-02-06T07:39:59.970Z,18.53
2019-02-06T07:42:29.801Z,22.23
2019-02-06T07:45:01.079Z,16.13
2019-02-06T07:47:31.088Z,14.90
2019-02-06T07:50:00.927Z,14.57
2019-02-06T07:52:30.832Z,14.27
2019-02-06T07:55:00.646Z,14.83
2019-02-06T07:57:32.268Z,15.73
2019-02-06T08:00:02.090Z,15.37
2019-02-06T08:02:31.972Z,14.80
2019-02-06T08:05:01.796Z,16.03
2019-02-06T08:07:31.623Z,16.00
2019-02-06T08:10:01.426Z,15.70
2019-02-06T08:12:31.695Z,32.70
2019-02-06T08:15:01.457Z,28.47
2019-02-06T08:17:31.261Z,17.53
2019-02-06T08:20:01.056Z,15.97
2019-02-06T08:22:30.880Z,16.70
2019-02-06T08:25:00.683Z,15.23
2019-02-06T08:27:31.843Z,16.83
2019-02-06T08:30:01.709Z,15.80
2019-02-06T08:32:31.474Z,16.83
2019-02-06T08:35:01.283Z,16.10
2019-02-06T08:37:31.054Z,15.47
2019-02-06T08:40:02.667Z,15.87
2019-02-06T08:42:32.447Z,15.30
2019-02-06T08:45:02.242Z,14.60
2019-02-06T08:47:32.061Z,14.73
2019-02-06T08:50:01.891Z,15.43
2019-02-06T08:52:31.659Z,15.47
2019-02-06T08:55:01.444Z,16.17
2019-02-06T08:57:31.361Z,15.03
2019-02-06T09:00:01.298Z,16.13
2019-02-06T09:02:31.879Z,15.90
2019-02-06T09:05:01.683Z,16.97
2019-02-06T09:07:33.352Z,16.77
2019-02-06T09:10:04.250Z,17.77
2019-02-06T09:12:34.002Z,16.87
2019-02-06T09:15:04.680Z,18.17
2019-02-06T09:17:34.533Z,17.67
2019-02-06T09:20:07.365Z,17.87
2019-02-06T09:22:37.214Z,18.73
2019-02-06T09:25:10.406Z,18.67
2019-02-06T09:27:40.615Z,16.53
2019-02-06T09:30:28.689Z,18.10
2019-02-06T09:32:58.547Z,16.50
2019-02-06T09:35:28.371Z,16.83
2019-02-06T09:37:58.276Z,17.03
2019-02-06T09:40:29.761Z,16.23
2019-02-06T09:42:59.527Z,18.33
2019-02-06T09:45:29.667Z,17.07
2019-02-06T09:48:00.833Z,17.57
2019-02-06T09:50:32.823Z,16.70
2019-02-06T09:53:03.240Z,16.37
2019-02-06T09:55:33.025Z,17.13
2019-02-06T09:58:03.081Z,16.60
2019-02-06T10:00:37.754Z,16.60
2019-02-06T10:03:08.052Z,16.50
2019-02-06T10:05:37.909Z,16.77
2019-02-06T10:08:07.722Z,17.17
2019-02-06T10:10:37.338Z,15.43
2019-02-06T10:13:07.240Z,15.47
2019-02-06T10:15:38.850Z,15.40
2019-02-06T10:18:11.037Z,14.63
2019-02-06T10:20:43.666Z,13.67
2019-02-06T10:23:13.615Z,14.93
2019-02-06T10:25:43.406Z,13.97
2019-02-06T10:28:14.121Z,13.00
2019-02-06T10:30:46.409Z,12.50
2019-02-06T10:33:18.902Z,12.67
2019-02-06T10:35:51.894Z,11.43
2019-02-06T10:38:21.193Z,11.90
2019-02-06T10:40:51.012Z,12.30
2019-02-06T10:43:31.683Z,13.60
2019-02-06T10:45:53.892Z,15.20
2019-02-06T10:48:24.355Z,13.40
2019-02-06T10:50:54.310Z,12.30
2019-02-06T10:53:24.959Z,13.63
2019-02-06T10:55:55.100Z,11.90
2019-02-06T10:58:24.910Z,12.03
2019-02-06T11:00:57.513Z,10.87
2019-02-06T11:03:28.085Z,11.47
2019-02-06T11:05:57.911Z,10.00
2019-02-06T11:08:27.704Z,9.20
2019-02-06T11:10:58.190Z,8.17
2019-02-06T11:13:28.009Z,8.80
2019-02-06T11:15:57.857Z,8.00
2019-02-06T11:18:29.451Z,8.77
2019-02-06T11:20:59.198Z,7.80
2019-02-06T11:23:28.964Z,8.23
2019-02-06T11:25:59.344Z,10.37
2019-02-06T11:28:30.293Z,7.40
2019-02-06T11:31:00.223Z,10.27
2019-02-06T11:33:30.021Z,8.50
2019-02-06T11:36:00.326Z,8.83
2019-02-06T11:38:31.064Z,8.77
2019-02-06T11:41:00.889Z,20.13
2019-02-06T11:43:32.164Z,8.63
2019-02-06T11:46:03.185Z,7.60
2019-02-06T11:48:32.990Z,6.90
2019-02-06T11:51:04.335Z,6.90
2019-02-06T11:53:34.414Z,6.50
2019-02-06T11:56:04.822Z,7.13
2019-02-06T11:58:34.956Z,5.80
2019-02-06T12:01:16.666Z,5.73
2019-02-06T12:03:47.276Z,6.07
2019-02-06T12:06:18.678Z,6.03
2019-02-06T12:08:50.629Z,6.27
2019-02-06T12:11:21.254Z,6.43
2019-02-06T12:13:51.139Z,6.27
2019-02-06T12:16:20.989Z,6.47
2019-02-06T12:18:51.966Z,6.40
2019-02-06T12:21:23.342Z,6.47
2019-02-06T12:23:54.166Z,6.97
2019-02-06T12:26:23.947Z,6.33
2019-02-06T12:28:53.959Z,6.43
2019-02-06T12:31:25.753Z,6.67
2019-02-06T12:33:57.169Z,6.30
2019-02-06T12:36:27.060Z,16.37
2019-02-06T12:38:56.844Z,7.23
2019-02-06T12:41:28.364Z,6.43
2019-02-06T12:43:58.134Z,6.23
2019-02-06T12:46:27.905Z,7.03
2019-02-06T12:48:57.713Z,7.23
2019-02-06T12:51:28.550Z,6.63
2019-02-06T12:53:58.322Z,7.40
2019-02-06T12:56:28.115Z,7.07
2019-02-06T12:58:57.904Z,7.43
2019-02-06T13:01:27.714Z,8.50
2019-02-06T13:03:57.459Z,7.40
2019-02-06T13:06:27.240Z,8.03
2019-02-06T13:08:57.026Z,7.27
2019-02-06T13:11:26.809Z,7.70
2019-02-06T13:13:56.768Z,7.30
2019-02-06T13:16:26.598Z,7.40
2019-02-06T13:18:56.388Z,7.50
2019-02-06T13:21:26.187Z,7.10
2019-02-06T13:23:55.966Z,7.60
2019-02-06T13:26:25.801Z,8.10
2019-02-06T13:28:55.886Z,8.37
2019-02-06T13:31:25.690Z,8.37
2019-02-06T13:33:55.508Z,8.10
2019-02-06T13:36:25.306Z,8.70
2019-02-06T13:38:55.918Z,8.07
2019-02-06T13:41:25.720Z,7.80
2019-02-06T13:43:55.486Z,7.70
2019-02-06T13:46:25.273Z,8.10
2019-02-06T13:48:55.332Z,7.90
2019-02-06T13:51:25.346Z,7.97
2019-02-06T13:53:55.159Z,8.10
2019-02-06T13:56:24.933Z,8.10
2019-02-06T13:58:54.691Z,8.60
2019-02-06T14:01:26.194Z,8.80
2019-02-06T14:03:56.173Z,8.10
2019-02-06T14:06:26.222Z,9.00
2019-02-06T14:08:56.002Z,9.30
2019-02-06T14:11:25.831Z,9.70
2019-02-06T14:13:55.655Z,9.97
2019-02-06T14:16:27.181Z,10.23
2019-02-06T14:18:57.106Z,11.40
2019-02-06T14:21:27.017Z,11.23
2019-02-06T14:24:00.613Z,11.00
2019-02-06T14:26:36.335Z,11.00
2019-02-06T14:29:24.467Z,11.60
2019-02-06T14:32:27.987Z,10.17
2019-02-06T14:35:00.823Z,11.70
2019-02-06T14:37:37.736Z,11.67
2019-02-06T14:40:19.747Z,10.93
2019-02-06T14:43:13.234Z,12.17
2019-02-06T14:45:57.596Z,10.90
2019-02-06T14:48:45.328Z,10.97
2019-02-06T14:51:27.108Z,10.93
2019-02-06T14:54:15.150Z,10.57
2019-02-06T14:56:57.660Z,10.60
2019-02-06T14:59:35.936Z,10.63
2019-02-06T15:02:28.102Z,12.47
2019-02-06T15:05:20.488Z,11.73
2019-02-06T15:07:57.074Z,11.40
2019-02-06T15:10:38.712Z,12.60
2019-02-06T15:13:29.548Z,13.00
2019-02-06T15:16:14.158Z,12.90
2019-02-06T15:18:50.079Z,13.33
2019-02-06T15:21:38.054Z,13.47
2019-02-06T15:24:29.309Z,13.57
2019-02-06T15:27:26.317Z,13.63
2019-02-06T15:30:02.110Z,14.03
2019-02-06T15:32:34.906Z,13.70
2019-02-06T15:35:23.044Z,14.27
2019-02-06T15:37:56.233Z,13.87
2019-02-06T15:40:34.903Z,15.53
2019-02-06T15:43:29.669Z,15.67
2019-02-06T15:46:17.514Z,17.30
2019-02-06T15:49:09.748Z,16.17
2019-02-06T15:51:48.337Z,16.37
2019-02-06T15:54:32.717Z,16.70
2019-02-06T15:57:05.619Z,21.27
2019-02-06T16:00:05.268Z,19.17
2019-02-06T16:02:54.430Z,18.77
2019-02-06T16:05:29.237Z,17.30
2019-02-06T16:08:18.462Z,17.33
2019-02-06T16:11:00.191Z,16.70
2019-02-06T16:13:49.366Z,16.07
2019-02-06T16:16:43.277Z,16.50
2019-02-06T16:19:37.137Z,16.30
2019-02-06T16:22:27.867Z,17.40
2019-02-06T16:25:19.072Z,16.77
2019-02-06T16:27:51.923Z,16.90
2019-02-06T16:30:33.644Z,16.60
2019-02-06T16:33:09.162Z,16.27
2019-02-06T16:36:10.825Z,15.87
2019-02-06T16:38:49.609Z,15.80
2019-02-06T16:41:53.002Z,15.27
2019-02-06T16:44:23.983Z,16.47
2019-02-06T16:47:19.015Z,15.63
2019-02-06T16:49:58.202Z,15.47
2019-02-06T16:52:38.249Z,17.57
2019-02-06T16:55:16.925Z,18.27
2019-02-06T16:58:07.676Z,19.37
2019-02-06T17:00:43.573Z,18.13
2019-02-06T17:03:25.457Z,19.77
2019-02-06T17:06:11.921Z,19.20
2019-02-06T17:09:02.632Z,18.60
2019-02-06T17:12:04.163Z,18.30
2019-02-06T17:14:36.995Z,18.53
2019-02-06T17:17:15.412Z,20.17
2019-02-06T17:20:13.919Z,18.53
2019-02-06T17:23:05.150Z,40.17
2019-02-06T17:25:49.843Z,19.10
2019-02-06T17:28:28.646Z,18.17
2019-02-06T17:31:11.733Z,17.93
2019-02-06T17:33:47.860Z,18.57
2019-02-06T17:36:45.031Z,18.27
2019-02-06T17:39:37.082Z,23.60
2019-02-06T17:42:24.846Z,23.13
2019-02-06T17:45:23.301Z,21.67
2019-02-06T17:48:05.546Z,20.53
2019-02-06T17:51:01.366Z,23.27
2019-02-06T17:53:40.035Z,20.63
2019-02-06T17:56:09.903Z,21.73
2019-02-06T17:58:40.110Z,22.90
2019-02-06T18:01:19.552Z,21.03
2019-02-06T18:03:50.294Z,23.43
2019-02-06T18:06:20.104Z,22.63
2019-02-06T18:08:56.706Z,23.77
2019-02-06T18:11:22.469Z,24.97
2019-02-06T18:13:52.718Z,25.30
2019-02-06T18:16:23.191Z,24.97
2019-02-06T18:18:52.992Z,25.77
2019-02-06T18:21:22.974Z,27.03
2019-02-06T18:23:52.817Z,26.83
2019-02-06T18:26:24.905Z,27.23
2019-02-06T18:28:55.442Z,26.67
2019-02-06T18:31:25.215Z,25.83
2019-02-06T18:33:55.474Z,25.20
2019-02-06T18:36:25.284Z,22.43
2019-02-06T18:38:55.077Z,23.57
2019-02-06T18:41:25.342Z,23.40
2019-02-06T18:43:55.598Z,22.77
2019-02-06T18:46:25.556Z,24.93
2019-02-06T18:48:55.439Z,84.50
2019-02-06T18:51:25.303Z,27.93
2019-02-06T18:53:55.150Z,25.10
2019-02-06T18:56:25.453Z,22.43
2019-02-06T18:58:55.265Z,22.70
2019-02-06T19:01:25.583Z,20.80
2019-02-06T19:03:55.546Z,23.33
2019-02-06T19:06:25.808Z,22.57
2019-02-06T19:08:55.710Z,21.47
2019-02-06T19:11:25.529Z,22.53
2019-02-06T19:13:55.389Z,22.63
2019-02-06T19:16:25.840Z,25.60
2019-02-06T19:18:55.852Z,25.50
2019-02-06T19:21:27.659Z,25.33
2019-02-06T19:23:59.042Z,26.27
2019-02-06T19:26:29.362Z,60.30
2019-02-06T19:28:59.628Z,28.53
2019-02-06T19:31:32.547Z,22.63
2019-02-06T19:34:02.834Z,23.27
2019-02-06T19:36:32.750Z,23.97
2019-02-06T19:39:02.609Z,23.23
2019-02-06T19:41:32.986Z,24.13
2019-02-06T19:44:02.906Z,24.57
2019-02-06T19:46:32.874Z,25.40
2019-02-06T19:49:03.672Z,27.10
2019-02-06T19:51:33.572Z,32.07
2019-02-06T19:54:03.875Z,29.53
2019-02-06T19:56:33.787Z,28.90
2019-02-06T19:59:03.899Z,27.10
2019-02-06T20:01:34.174Z,27.97
2019-02-06T20:04:04.755Z,24.33
2019-02-06T20:06:35.507Z,23.40
2019-02-06T20:09:07.243Z,23.70
2019-02-06T20:11:37.204Z,24.77
2019-02-06T20:14:07.571Z,25.30
2019-02-06T20:16:37.667Z,67.47
2019-02-06T20:19:08.943Z,30.00
2019-02-06T20:21:39.306Z,25.23
2019-02-06T20:24:10.832Z,23.60
2019-02-06T20:26:40.724Z,23.83
2019-02-06T20:29:11.475Z,24.20
2019-02-06T20:31:41.346Z,23.83
2019-02-06T20:34:11.377Z,23.03
2019-02-06T20:36:41.788Z,27.53
2019-02-06T20:39:11.740Z,27.77
2019-02-06T20:41:41.728Z,26.50
2019-02-06T20:44:12.142Z,25.47
2019-02-06T20:46:42.088Z,26.33
2019-02-06T20:49:12.468Z,24.97
2019-02-06T20:51:43.569Z,25.20
2019-02-06T20:54:13.745Z,24.43
2019-02-06T20:56:44.165Z,25.87
2019-02-06T20:59:14.095Z,28.70
2019-02-06T21:01:44.370Z,26.50
2019-02-06T21:04:15.438Z,29.37
2019-02-06T21:06:45.781Z,26.20
2019-02-06T21:09:16.211Z,25.93
2019-02-06T21:11:46.066Z,26.70
2019-02-06T21:14:15.905Z,27.70
2019-02-06T21:16:45.714Z,26.77
2019-02-06T21:19:15.535Z,25.90
2019-02-06T21:21:45.350Z,25.17
2019-02-06T21:24:15.174Z,25.53
2019-02-06T21:26:44.962Z,26.23
2019-02-06T21:29:14.801Z,27.70
2019-02-06T21:31:44.640Z,26.80
2019-02-06T21:34:14.488Z,25.47
2019-02-06T21:36:44.399Z,27.60
2019-02-06T21:39:14.224Z,28.43
2019-02-06T21:41:44.995Z,29.07
2019-02-06T21:44:14.968Z,27.93
2019-02-06T21:46:44.781Z,28.67
2019-02-06T21:49:14.546Z,29.10
2019-02-06T21:51:44.769Z,35.50
2019-02-06T21:54:14.696Z,31.93
2019-02-06T21:56:44.486Z,32.73
2019-02-06T21:59:15.327Z,28.87
2019-02-06T22:01:45.100Z,29.77
2019-02-06T22:04:14.900Z,27.13
2019-02-06T22:06:45.014Z,26.53
2019-02-06T22:09:14.826Z,27.67
2019-02-06T22:11:45.681Z,27.60
2019-02-06T22:14:15.389Z,29.80
2019-02-06T22:16:45.267Z,28.10
2019-02-06T22:19:15.316Z,28.40
2019-02-06T22:21:45.072Z,26.07
2019-02-06T22:24:14.839Z,25.10
2019-02-06T22:26:44.637Z,26.60
2019-02-06T22:29:14.342Z,26.80
2019-02-06T22:31:44.168Z,27.87
2019-02-06T22:34:14.215Z,28.73
2019-02-06T22:36:44.061Z,26.97
2019-02-06T22:39:13.854Z,26.97
2019-02-06T22:41:43.660Z,27.33
2019-02-06T22:44:13.439Z,26.97
2019-02-06T22:46:43.232Z,27.23
2019-02-06T22:49:13.281Z,26.77
2019-02-06T22:51:43.091Z,25.90
2019-02-06T22:54:12.890Z,25.23
2019-02-06T22:56:42.694Z,24.50
2019-02-06T22:59:12.480Z,25.13
2019-02-06T23:01:42.693Z,26.07
2019-02-06T23:04:12.576Z,24.33
2019-02-06T23:06:42.374Z,25.23
2019-02-06T23:09:12.286Z,23.20
2019-02-06T23:11:42.068Z,23.23
2019-02-06T23:14:17.528Z,24.20
2019-02-06T23:16:43.361Z,23.20
2019-02-06T23:19:13.077Z,24.00
2019-02-06T23:21:42.888Z,24.27
2019-02-06T23:24:12.608Z,23.87
2019-02-06T23:26:42.419Z,23.33
2019-02-06T23:29:12.242Z,23.80
2019-02-06T23:31:42.176Z,25.07
2019-02-06T23:34:12.063Z,23.80
2019-02-06T23:36:41.913Z,25.47
2019-02-06T23:39:14.089Z,27.03
2019-02-06T23:41:44.054Z,26.33
2019-02-06T23:44:14.290Z,25.87
2019-02-06T23:46:44.087Z,27.03
2019-02-06T23:49:13.954Z,24.90
2019-02-06T23:51:43.726Z,25.33
2019-02-06T23:54:16.305Z,28.77
2019-02-06T23:56:46.098Z,26.07
2019-02-06T23:59:15.975Z,24.27
